createdAt,value
2023-03-08T00:00:35.183Z,6.40
2023-03-08T00:08:45.768Z,6.38
2023-03-08T00:09:46.274Z,6.43
2023-03-08T00:10:46.296Z,6.36
2023-03-08T00:11:46.812Z,6.29
2023-03-08T00:15:50.161Z,6.36
2023-03-08T00:16:50.192Z,6.33
2023-03-08T00:17:50.815Z,6.33
2023-03-08T00:18:50.207Z,6.33
2023-03-08T00:19:50.284Z,6.30
2023-03-08T00:20:50.263Z,6.32
2023-03-08T00:21:50.276Z,6.35
2023-03-08T00:22:48.455Z,6.29
2023-03-08T00:23:48.519Z,6.32
2023-03-08T00:24:48.546Z,6.25
2023-03-08T00:25:48.619Z,6.33
2023-03-08T00:26:48.632Z,6.32
2023-03-08T00:27:48.681Z,6.35
2023-03-08T00:28:50.521Z,6.35
2023-03-08T00:29:48.790Z,6.38
2023-03-08T00:30:48.805Z,6.36
2023-03-08T00:31:50.594Z,6.35
2023-03-08T00:32:48.897Z,6.32
2023-03-08T00:33:48.948Z,6.22
2023-03-08T00:34:49.006Z,6.29
2023-03-08T00:35:49.042Z,6.28
2023-03-08T00:36:49.061Z,6.33
2023-03-08T00:37:49.118Z,6.22
2023-03-08T00:38:49.181Z,6.30
2023-03-08T00:39:49.212Z,6.26
2023-03-08T00:40:49.237Z,6.29
2023-03-08T00:41:49.311Z,6.26
2023-03-08T00:42:49.328Z,6.19
2023-03-08T00:43:49.373Z,6.29
2023-03-08T00:44:49.412Z,6.28
2023-03-08T00:45:52.910Z,6.29
2023-03-08T00:46:50.446Z,6.32
2023-03-08T00:47:49.546Z,6.33
2023-03-08T00:48:49.588Z,6.33
2023-03-08T00:49:49.625Z,6.30
2023-03-08T00:50:50.489Z,6.35
2023-03-08T00:51:49.745Z,6.30
2023-03-08T00:52:50.533Z,6.36
2023-03-08T00:53:50.554Z,6.30
2023-03-08T00:54:50.581Z,6.35
2023-03-08T00:55:50.818Z,6.38
2023-03-08T00:56:50.664Z,6.36
2023-03-08T00:57:50.822Z,6.36
2023-03-08T00:58:50.051Z,6.35
2023-03-08T00:59:50.060Z,6.38
2023-03-08T01:00:50.165Z,6.36
2023-03-08T01:01:50.147Z,6.35
2023-03-08T01:02:50.234Z,6.40
2023-03-08T01:03:50.233Z,6.35
2023-03-08T01:04:50.313Z,6.38
2023-03-08T01:05:50.357Z,6.33
2023-03-08T01:06:50.371Z,6.38
2023-03-08T01:07:50.408Z,6.40
2023-03-08T01:08:50.489Z,6.40
2023-03-08T01:09:50.496Z,6.35
2023-03-08T01:10:50.564Z,6.32
2023-03-08T01:11:51.323Z,6.35
2023-03-08T01:12:50.636Z,6.33
2023-03-08T01:13:50.665Z,6.35
2023-03-08T01:14:50.717Z,6.33
2023-03-08T01:15:50.765Z,6.36
2023-03-08T01:16:50.822Z,6.32
2023-03-08T01:17:50.852Z,6.32
2023-03-08T01:18:50.921Z,6.35
2023-03-08T01:19:50.937Z,6.32
2023-03-08T01:20:50.971Z,6.38
2023-03-08T01:21:51.026Z,6.33
2023-03-08T01:22:51.058Z,6.38
2023-03-08T01:23:51.138Z,6.32
2023-03-08T01:24:51.151Z,6.35
2023-03-08T01:25:51.222Z,6.36
2023-03-08T01:26:57.820Z,6.36
2023-03-08T01:27:51.287Z,6.33
2023-03-08T01:28:51.318Z,6.32
2023-03-08T01:29:51.398Z,6.36
2023-03-08T01:30:51.406Z,6.30
2023-03-08T01:31:51.461Z,6.33
2023-03-08T01:32:51.496Z,6.32
2023-03-08T01:33:51.578Z,6.32
2023-03-08T01:34:51.577Z,6.28
2023-03-08T01:35:51.661Z,6.32
2023-03-08T01:36:51.666Z,6.26
2023-03-08T01:37:51.752Z,6.29
2023-03-08T01:38:51.767Z,6.26
2023-03-08T01:39:51.805Z,6.32
2023-03-08T01:40:51.840Z,6.29
2023-03-08T01:41:51.890Z,6.32
2023-03-08T01:42:51.953Z,6.38
2023-03-08T01:43:51.977Z,6.38
2023-03-08T01:44:52.010Z,6.33
2023-03-08T01:45:52.055Z,6.35
2023-03-08T01:46:52.139Z,6.30
2023-03-08T01:47:52.144Z,6.29
2023-03-08T01:48:52.193Z,6.35
2023-03-08T01:49:52.230Z,6.38
2023-03-08T01:50:55.450Z,6.26
2023-03-08T01:51:52.318Z,6.32
2023-03-08T01:52:52.375Z,6.38
2023-03-08T01:53:52.409Z,6.32
2023-03-08T01:54:55.487Z,6.28
2023-03-08T01:55:52.523Z,6.25
2023-03-08T01:56:52.540Z,6.21
2023-03-08T01:57:52.577Z,6.16
2023-03-08T01:58:52.630Z,6.10
2023-03-08T01:59:52.669Z,6.14
2023-03-08T02:00:52.769Z,6.11
2023-03-08T02:01:52.746Z,6.14
2023-03-08T02:02:52.800Z,6.06
2023-03-08T02:03:52.839Z,6.09
2023-03-08T02:04:52.890Z,6.11
2023-03-08T02:05:52.965Z,6.10
2023-03-08T02:06:52.980Z,6.11
2023-03-08T02:07:53.014Z,6.09
2023-03-08T02:08:53.077Z,6.14
2023-03-08T02:09:53.102Z,6.11
2023-03-08T02:10:53.178Z,6.06
2023-03-08T02:11:53.225Z,6.07
2023-03-08T02:12:53.239Z,6.09
2023-03-08T02:13:55.308Z,6.09
2023-03-08T02:14:53.330Z,6.16
2023-03-08T02:15:53.373Z,6.14
2023-03-08T02:16:53.437Z,6.13
2023-03-08T02:17:53.461Z,6.07
2023-03-08T02:18:53.499Z,6.01
2023-03-08T02:19:53.546Z,6.03
2023-03-08T02:20:53.612Z,6.00
2023-03-08T02:21:53.635Z,5.98
2023-03-08T02:22:53.677Z,6.09
2023-03-08T02:23:53.724Z,6.18
2023-03-08T02:24:53.753Z,6.09
2023-03-08T02:25:53.851Z,6.01
2023-03-08T02:26:53.847Z,6.00
2023-03-08T02:27:55.631Z,6.01
2023-03-08T02:28:53.931Z,5.96
2023-03-08T02:29:53.983Z,5.91
2023-03-08T02:30:56.841Z,5.93
2023-03-08T02:31:55.703Z,6.06
2023-03-08T02:32:54.107Z,6.00
2023-03-08T02:33:54.158Z,6.01
2023-03-08T02:34:54.196Z,6.03
2023-03-08T02:35:54.339Z,6.14
2023-03-08T02:36:54.280Z,6.04
2023-03-08T02:37:54.334Z,6.10
2023-03-08T02:38:57.337Z,6.07
2023-03-08T02:39:54.417Z,6.06
2023-03-08T02:40:55.332Z,6.07
2023-03-08T02:41:55.722Z,6.11
2023-03-08T02:42:54.540Z,6.09
2023-03-08T02:43:54.593Z,6.09
2023-03-08T02:44:55.487Z,6.09
2023-03-08T02:45:55.528Z,6.11
2023-03-08T02:46:54.720Z,6.18
2023-03-08T02:47:54.764Z,6.09
2023-03-08T02:48:54.844Z,6.16
2023-03-08T02:49:54.844Z,6.16
2023-03-08T02:50:55.661Z,6.13
2023-03-08T02:51:54.935Z,6.13
2023-03-08T02:52:54.982Z,6.13
2023-03-08T02:53:55.073Z,6.04
2023-03-08T02:54:55.770Z,6.07
2023-03-08T02:55:55.107Z,6.13
2023-03-08T02:56:55.163Z,6.13
2023-03-08T02:57:55.209Z,6.14
2023-03-08T02:58:55.282Z,6.00
2023-03-08T02:59:55.289Z,6.14
2023-03-08T03:00:55.365Z,6.09
2023-03-08T03:01:55.370Z,6.13
2023-03-08T03:02:55.422Z,6.11
2023-03-08T03:03:55.456Z,6.10
2023-03-08T03:04:56.004Z,6.04
2023-03-08T03:05:56.053Z,6.14
2023-03-08T03:06:55.597Z,6.06
2023-03-08T03:07:55.630Z,6.09
2023-03-08T03:08:55.683Z,6.01
2023-03-08T03:09:55.756Z,6.04
2023-03-08T03:10:55.796Z,6.07
2023-03-08T03:11:55.811Z,5.96
2023-03-08T03:12:55.892Z,6.01
2023-03-08T03:13:55.898Z,5.86
2023-03-08T03:14:56.275Z,5.93
2023-03-08T03:15:56.513Z,5.86
2023-03-08T03:16:56.028Z,5.86
2023-03-08T03:17:56.115Z,5.77
2023-03-08T03:18:56.391Z,5.77
2023-03-08T03:19:56.167Z,5.77
2023-03-08T03:20:56.198Z,5.68
2023-03-08T03:21:56.251Z,5.70
2023-03-08T03:22:56.284Z,5.57
2023-03-08T03:23:56.374Z,5.56
2023-03-08T03:24:56.479Z,5.53
2023-03-08T03:25:56.505Z,5.40
2023-03-08T03:26:56.463Z,5.38
2023-03-08T03:27:56.541Z,5.35
2023-03-08T03:28:56.546Z,5.30
2023-03-08T03:29:56.599Z,5.32
2023-03-08T03:30:56.651Z,5.32
2023-03-08T03:31:56.680Z,5.23
2023-03-08T03:32:56.744Z,5.30
2023-03-08T03:33:56.770Z,5.31
2023-03-08T03:34:57.325Z,5.23
2023-03-08T03:35:56.871Z,5.22
2023-03-08T03:36:56.890Z,5.17
2023-03-08T03:37:56.974Z,5.09
2023-03-08T03:38:56.975Z,5.05
2023-03-08T03:39:57.043Z,4.98
2023-03-08T03:40:57.093Z,5.04
2023-03-08T03:41:57.167Z,5.04
2023-03-08T03:42:57.153Z,5.01
2023-03-08T03:43:57.201Z,5.09
2023-03-08T03:44:57.238Z,5.01
2023-03-08T03:45:57.284Z,4.99
2023-03-08T03:46:57.364Z,4.98
2023-03-08T03:47:57.369Z,5.02
2023-03-08T03:48:57.457Z,5.01
2023-03-08T03:49:57.456Z,4.92
2023-03-08T03:51:00.849Z,4.86
2023-03-08T03:51:57.544Z,4.94
2023-03-08T03:52:57.597Z,4.88
2023-03-08T03:53:57.662Z,4.91
2023-03-08T03:54:57.683Z,4.84
2023-03-08T03:55:57.716Z,4.89
2023-03-08T03:56:57.771Z,4.80
2023-03-08T03:58:04.334Z,4.77
2023-03-08T03:58:57.888Z,4.72
2023-03-08T03:59:57.898Z,4.72
2023-03-08T04:00:57.941Z,4.65
2023-03-08T04:02:04.839Z,4.73
2023-03-08T04:02:58.119Z,4.69
2023-03-08T04:03:58.163Z,4.61
2023-03-08T04:04:58.110Z,4.59
2023-03-08T04:05:58.146Z,4.57
2023-03-08T04:07:04.856Z,4.62
2023-03-08T04:08:04.842Z,4.69
2023-03-08T04:09:04.858Z,4.64
2023-03-08T04:10:05.346Z,4.50
2023-03-08T04:11:05.350Z,4.54
2023-03-08T04:11:58.407Z,4.51
2023-03-08T04:12:58.460Z,4.55
2023-03-08T04:13:58.489Z,4.54
2023-03-08T04:14:58.544Z,4.61
2023-03-08T04:16:05.361Z,4.72
2023-03-08T04:17:05.342Z,4.84
2023-03-08T04:17:58.703Z,4.83
2023-03-08T04:19:05.346Z,4.91
2023-03-08T04:19:58.757Z,4.92
2023-03-08T04:21:01.841Z,4.94
2023-03-08T04:22:01.866Z,4.92
2023-03-08T04:22:58.879Z,4.92
2023-03-08T04:24:01.906Z,4.95
2023-03-08T04:24:58.952Z,4.91
2023-03-08T04:26:01.952Z,4.89
2023-03-08T04:26:59.041Z,4.92
2023-03-08T04:27:59.118Z,4.91
2023-03-08T04:28:59.127Z,4.88
2023-03-08T04:30:02.056Z,4.95
2023-03-08T04:31:02.074Z,5.01
2023-03-08T04:31:59.259Z,5.04
2023-03-08T04:32:59.294Z,5.13
2023-03-08T04:33:59.349Z,5.04
2023-03-08T04:34:59.396Z,5.09
2023-03-08T04:36:01.864Z,5.01
2023-03-08T04:36:59.456Z,5.05
2023-03-08T04:37:59.518Z,4.98
2023-03-08T04:38:59.574Z,4.95
2023-03-08T04:39:59.598Z,4.91
2023-03-08T04:40:59.627Z,4.83
2023-03-08T04:41:59.688Z,4.86
2023-03-08T04:42:59.713Z,4.92
2023-03-08T04:43:59.801Z,4.79
2023-03-08T04:44:59.835Z,4.80
2023-03-08T04:45:59.839Z,4.77
2023-03-08T04:46:59.922Z,4.80
2023-03-08T04:47:59.930Z,4.80
2023-03-08T04:48:59.974Z,4.80
2023-03-08T04:50:00.053Z,4.83
2023-03-08T04:51:00.065Z,4.75
2023-03-08T04:52:02.055Z,4.80
2023-03-08T04:53:02.093Z,4.70
2023-03-08T04:54:00.178Z,4.83
2023-03-08T04:55:00.260Z,4.80
2023-03-08T04:56:00.264Z,4.73
2023-03-08T04:57:00.313Z,4.75
2023-03-08T04:58:00.356Z,4.77
2023-03-08T04:59:00.397Z,4.75
2023-03-08T05:00:01.343Z,4.88
2023-03-08T05:01:02.307Z,4.80
2023-03-08T05:02:00.546Z,4.79
2023-03-08T05:03:00.570Z,4.79
2023-03-08T05:04:00.607Z,4.77
2023-03-08T05:05:00.714Z,4.75
2023-03-08T05:06:01.338Z,4.89
2023-03-08T05:07:00.742Z,4.92
2023-03-08T05:08:00.803Z,4.88
2023-03-08T05:09:02.180Z,4.84
2023-03-08T05:10:02.204Z,4.92
2023-03-08T05:11:02.224Z,4.88
2023-03-08T05:12:02.237Z,4.88
2023-03-08T05:13:02.277Z,4.92
2023-03-08T05:14:01.058Z,4.94
2023-03-08T05:15:01.074Z,5.04
2023-03-08T05:16:01.177Z,4.98
2023-03-08T05:17:02.545Z,5.04
2023-03-08T05:18:01.207Z,5.02
2023-03-08T05:19:02.225Z,5.07
2023-03-08T05:20:01.298Z,5.07
2023-03-08T05:21:01.359Z,5.09
2023-03-08T05:22:01.374Z,5.10
2023-03-08T05:23:01.422Z,5.09
2023-03-08T05:24:01.461Z,5.17
2023-03-08T05:25:01.500Z,5.10
2023-03-08T05:26:01.585Z,5.10
2023-03-08T05:27:02.250Z,5.07
2023-03-08T05:28:01.632Z,5.13
2023-03-08T05:29:01.666Z,5.13
2023-03-08T05:30:01.710Z,5.07
2023-03-08T05:31:01.785Z,5.02
2023-03-08T05:32:01.861Z,5.16
2023-03-08T05:33:01.831Z,5.19
2023-03-08T05:34:01.884Z,5.23
2023-03-08T05:35:01.925Z,5.17
2023-03-08T05:36:01.973Z,5.20
2023-03-08T05:37:02.034Z,5.20
2023-03-08T05:38:02.056Z,5.25
2023-03-08T05:39:02.108Z,5.19
2023-03-08T05:40:02.148Z,5.16
2023-03-08T05:41:02.190Z,5.10
2023-03-08T05:42:02.261Z,5.16
2023-03-08T05:43:02.842Z,5.14
2023-03-08T05:44:02.353Z,5.14
2023-03-08T05:45:02.401Z,5.14
2023-03-08T05:46:02.470Z,5.05
2023-03-08T05:47:02.441Z,5.14
2023-03-08T05:48:02.471Z,5.14
2023-03-08T05:49:02.521Z,5.13
2023-03-08T05:50:02.594Z,5.17
2023-03-08T05:51:02.611Z,5.20
2023-03-08T05:52:09.357Z,5.14
2023-03-08T05:53:02.692Z,5.25
2023-03-08T05:54:02.753Z,5.25
2023-03-08T05:55:02.803Z,5.19
2023-03-08T05:56:02.809Z,5.17
2023-03-08T05:57:02.865Z,5.20
2023-03-08T05:58:02.895Z,5.20
2023-03-08T05:59:02.952Z,5.13
2023-03-08T06:00:03.006Z,5.20
2023-03-08T06:01:03.057Z,5.14
2023-03-08T06:02:03.110Z,5.12
2023-03-08T06:03:03.153Z,5.25
2023-03-08T06:04:03.844Z,5.16
2023-03-08T06:05:03.238Z,5.22
2023-03-08T06:06:03.233Z,5.22
2023-03-08T06:07:03.294Z,5.16
2023-03-08T06:08:03.327Z,5.19
2023-03-08T06:09:06.345Z,5.16
2023-03-08T06:10:06.323Z,5.22
2023-03-08T06:11:06.895Z,5.25
2023-03-08T06:12:06.353Z,5.25
2023-03-08T06:13:03.547Z,5.20
2023-03-08T06:14:06.343Z,5.28
2023-03-08T06:15:06.390Z,5.19
2023-03-08T06:16:03.670Z,5.25
2023-03-08T06:17:06.433Z,5.20
2023-03-08T06:18:06.468Z,5.27
2023-03-08T06:19:06.890Z,5.27
2023-03-08T06:20:03.844Z,5.28
2023-03-08T06:21:06.565Z,5.25
2023-03-08T06:22:03.929Z,5.28
2023-03-08T06:23:06.609Z,5.31
2023-03-08T06:24:04.042Z,5.35
2023-03-08T06:25:04.048Z,5.43
2023-03-08T06:26:06.683Z,5.38
2023-03-08T06:27:04.172Z,5.40
2023-03-08T06:28:04.211Z,5.37
2023-03-08T06:29:04.234Z,5.40
2023-03-08T06:30:04.273Z,5.40
2023-03-08T06:31:04.380Z,5.32
2023-03-08T06:32:04.506Z,5.48
2023-03-08T06:33:07.346Z,5.43
2023-03-08T06:34:04.444Z,5.34
2023-03-08T06:35:07.347Z,5.40
2023-03-08T06:36:04.534Z,5.43
2023-03-08T06:37:04.604Z,5.40
2023-03-08T06:38:06.944Z,5.40
2023-03-08T06:39:07.348Z,5.49
2023-03-08T06:40:06.997Z,5.37
2023-03-08T06:41:07.005Z,5.40
2023-03-08T06:42:07.086Z,5.50
2023-03-08T06:43:04.829Z,5.52
2023-03-08T06:44:04.886Z,5.49
2023-03-08T06:45:07.100Z,5.48
2023-03-08T06:46:07.179Z,5.50
2023-03-08T06:47:05.042Z,5.50
2023-03-08T06:48:05.042Z,5.50
2023-03-08T06:49:05.121Z,5.53
2023-03-08T06:50:05.132Z,5.59
2023-03-08T06:51:07.252Z,5.63
2023-03-08T06:52:07.255Z,5.63
2023-03-08T06:53:05.262Z,5.64
2023-03-08T06:54:05.348Z,5.70
2023-03-08T06:55:05.353Z,5.70
2023-03-08T06:56:05.391Z,5.67
2023-03-08T06:57:07.257Z,5.70
2023-03-08T06:58:07.268Z,5.77
2023-03-08T06:59:05.559Z,5.74
2023-03-08T07:00:07.298Z,5.75
2023-03-08T07:01:05.694Z,5.74
2023-03-08T07:02:05.674Z,5.82
2023-03-08T07:03:07.373Z,5.89
2023-03-08T07:04:07.382Z,5.91
2023-03-08T07:05:07.395Z,5.86
2023-03-08T07:06:14.440Z,5.92
2023-03-08T07:07:08.457Z,6.04
2023-03-08T07:08:08.916Z,6.03
2023-03-08T07:09:14.480Z,6.04
2023-03-08T07:10:08.926Z,6.07
2023-03-08T07:11:07.516Z,6.11
2023-03-08T07:12:12.928Z,6.22
2023-03-08T07:13:07.983Z,6.32
2023-03-08T07:15:45.362Z,6.36
2023-03-08T07:16:45.366Z,6.43
2023-03-08T07:17:45.404Z,6.51
2023-03-08T07:18:45.454Z,6.61
2023-03-08T07:19:45.521Z,6.62
2023-03-08T07:20:45.547Z,6.62
2023-03-08T07:21:45.573Z,6.68
2023-03-08T07:22:45.653Z,6.66
2023-03-08T07:23:45.659Z,6.72
2023-03-08T07:24:45.708Z,6.68
2023-03-08T07:25:45.777Z,6.79
2023-03-08T07:26:45.799Z,6.76
2023-03-08T07:27:45.838Z,6.80
2023-03-08T07:28:45.886Z,6.76
2023-03-08T07:29:45.927Z,6.91
2023-03-08T07:30:45.997Z,6.79
2023-03-08T07:31:46.077Z,6.81
2023-03-08T07:32:46.157Z,6.83
2023-03-08T07:33:46.090Z,6.84
2023-03-08T07:34:46.181Z,6.87
2023-03-08T07:35:46.239Z,6.84
2023-03-08T07:36:46.259Z,6.83
2023-03-08T07:37:46.279Z,6.84
2023-03-08T07:38:46.325Z,6.80
2023-03-08T07:39:46.358Z,6.80
2023-03-08T07:40:46.422Z,6.80
2023-03-08T07:41:47.623Z,6.80
2023-03-08T07:42:46.503Z,6.84
2023-03-08T07:43:46.539Z,6.87
2023-03-08T07:44:46.586Z,6.87
2023-03-08T07:45:46.634Z,6.89
2023-03-08T07:46:46.736Z,6.81
2023-03-08T07:47:46.729Z,6.89
2023-03-08T07:48:46.792Z,6.86
2023-03-08T07:49:46.819Z,6.79
2023-03-08T07:50:46.849Z,6.98
2023-03-08T07:51:46.896Z,6.97
2023-03-08T07:52:46.935Z,6.94
2023-03-08T07:53:47.013Z,6.91
2023-03-08T07:54:47.070Z,6.95
2023-03-08T07:55:47.073Z,6.91
2023-03-08T07:56:47.109Z,6.95
2023-03-08T07:57:47.158Z,6.91
2023-03-08T07:58:47.245Z,6.89
2023-03-08T07:59:47.286Z,6.99
2023-03-08T08:00:47.314Z,6.97
2023-03-08T08:01:47.340Z,7.01
2023-03-08T08:02:47.438Z,7.07
2023-03-08T08:03:47.455Z,6.97
2023-03-08T08:04:47.472Z,6.98
2023-03-08T08:05:47.551Z,6.79
2023-03-08T08:06:47.553Z,6.86
2023-03-08T08:07:47.610Z,6.86
2023-03-08T08:08:47.645Z,6.79
2023-03-08T08:09:47.692Z,6.77
2023-03-08T08:10:47.753Z,6.86
2023-03-08T08:11:47.782Z,6.84
2023-03-08T08:12:47.818Z,6.94
2023-03-08T08:13:47.868Z,6.97
2023-03-08T08:14:47.941Z,6.94
2023-03-08T08:15:48.073Z,6.91
2023-03-08T08:16:48.006Z,7.02
2023-03-08T08:17:48.037Z,6.90
2023-03-08T08:18:48.090Z,6.90
2023-03-08T08:19:48.120Z,6.91
2023-03-08T08:20:48.200Z,6.97
2023-03-08T08:21:48.222Z,6.91
2023-03-08T08:22:48.266Z,6.89
2023-03-08T08:23:48.318Z,6.95
2023-03-08T08:24:48.351Z,6.91
2023-03-08T08:25:48.415Z,7.02
2023-03-08T08:26:48.442Z,7.02
2023-03-08T08:27:48.477Z,6.99
2023-03-08T08:28:48.528Z,6.97
2023-03-08T08:29:48.561Z,6.89
2023-03-08T08:30:48.658Z,6.89
2023-03-08T08:31:48.727Z,6.94
2023-03-08T08:32:48.836Z,6.91
2023-03-08T08:33:49.367Z,6.89
2023-03-08T08:34:48.793Z,6.91
2023-03-08T08:35:48.846Z,6.94
2023-03-08T08:36:48.922Z,6.90
2023-03-08T08:37:48.920Z,6.87
2023-03-08T08:38:48.973Z,6.89
2023-03-08T08:39:49.009Z,6.87
2023-03-08T08:40:49.058Z,6.91
2023-03-08T08:41:49.126Z,6.91
2023-03-08T08:42:49.173Z,6.94
2023-03-08T08:43:49.175Z,6.90
2023-03-08T08:44:49.237Z,6.89
2023-03-08T08:45:49.303Z,6.91
2023-03-08T08:46:49.317Z,6.91
2023-03-08T08:47:49.399Z,6.97
2023-03-08T08:48:49.404Z,6.94
2023-03-08T08:49:49.467Z,6.89
2023-03-08T08:50:49.499Z,6.91
2023-03-08T08:51:49.548Z,6.94
2023-03-08T08:52:49.661Z,6.98
2023-03-08T08:53:49.647Z,6.91
2023-03-08T08:54:49.681Z,6.91
2023-03-08T08:55:49.722Z,6.97
2023-03-08T08:56:49.829Z,6.87
2023-03-08T08:57:49.816Z,6.94
2023-03-08T08:58:49.858Z,6.98
2023-03-08T08:59:49.900Z,7.02
2023-03-08T09:00:49.944Z,7.04
2023-03-08T09:01:50.030Z,6.86
2023-03-08T09:02:50.048Z,7.02
2023-03-08T09:03:50.174Z,7.04
2023-03-08T09:04:50.213Z,7.05
2023-03-08T09:05:50.871Z,7.04
2023-03-08T09:06:50.213Z,7.15
2023-03-08T09:07:50.255Z,7.08
2023-03-08T09:08:50.291Z,7.12
2023-03-08T09:09:50.375Z,7.24
2023-03-08T09:10:50.416Z,7.23
2023-03-08T09:11:55.098Z,7.23
2023-03-08T09:12:50.493Z,7.32
2023-03-08T09:13:50.528Z,7.26
2023-03-08T09:14:50.553Z,7.27
2023-03-08T09:15:50.642Z,7.32
2023-03-08T09:16:50.771Z,7.20
2023-03-08T09:17:50.691Z,7.15
2023-03-08T09:18:50.750Z,7.22
2023-03-08T09:19:50.782Z,7.17
2023-03-08T09:20:50.862Z,7.13
2023-03-08T09:21:50.905Z,7.16
2023-03-08T09:22:51.029Z,7.24
2023-03-08T09:23:50.965Z,7.24
2023-03-08T09:24:51.046Z,7.29
2023-03-08T09:25:51.056Z,7.23
2023-03-08T09:26:51.116Z,7.24
2023-03-08T09:27:51.194Z,7.23
2023-03-08T09:28:51.256Z,7.23
2023-03-08T09:29:51.244Z,7.23
2023-03-08T09:30:51.297Z,7.31
2023-03-08T09:31:51.364Z,7.29
2023-03-08T09:32:51.440Z,7.16
2023-03-08T09:33:51.435Z,7.13
2023-03-08T09:34:51.507Z,7.19
2023-03-08T09:35:51.502Z,7.34
2023-03-08T09:36:52.402Z,7.29
2023-03-08T09:37:51.621Z,7.26
2023-03-08T09:38:51.654Z,7.41
2023-03-08T09:39:51.732Z,7.45
2023-03-08T09:40:51.737Z,7.45
2023-03-08T09:41:51.781Z,7.38
2023-03-08T09:42:51.822Z,7.47
2023-03-08T09:43:51.868Z,7.41
2023-03-08T09:44:51.950Z,7.45
2023-03-08T09:45:52.069Z,7.42
2023-03-08T09:46:52.005Z,7.47
2023-03-08T09:47:52.134Z,7.27
2023-03-08T09:48:52.106Z,7.20
2023-03-08T09:49:52.175Z,7.31
2023-03-08T09:50:52.195Z,7.26
2023-03-08T09:51:52.259Z,7.26
2023-03-08T09:52:52.282Z,7.24
2023-03-08T09:53:52.331Z,7.29
2023-03-08T09:54:52.434Z,7.29
2023-03-08T09:55:52.414Z,7.31
2023-03-08T09:56:52.442Z,7.49
2023-03-08T09:57:52.684Z,7.52
2023-03-08T09:58:52.531Z,7.60
2023-03-08T09:59:52.581Z,7.60
2023-03-08T10:00:52.679Z,7.63
2023-03-08T10:01:52.674Z,7.59
2023-03-08T10:02:52.798Z,7.79
2023-03-08T10:03:52.804Z,7.72
2023-03-08T10:05:06.032Z,7.72
2023-03-08T10:05:52.848Z,7.66
2023-03-08T10:06:52.886Z,7.59
2023-03-08T10:07:52.966Z,7.69
2023-03-08T10:08:52.989Z,7.58
2023-03-08T10:09:53.026Z,7.69
2023-03-08T10:10:53.102Z,7.63
2023-03-08T10:11:53.189Z,7.63
2023-03-08T10:12:53.186Z,7.62
2023-03-08T10:13:53.261Z,7.56
2023-03-08T10:14:53.302Z,7.58
2023-03-08T10:15:53.287Z,7.59
2023-03-08T10:16:53.367Z,7.63
2023-03-08T10:17:53.407Z,7.62
2023-03-08T10:18:53.430Z,7.59
2023-03-08T10:19:53.464Z,7.60
2023-03-08T10:20:53.557Z,7.56
2023-03-08T10:21:53.582Z,7.75
2023-03-08T10:22:53.613Z,7.69
2023-03-08T10:23:53.653Z,7.74
2023-03-08T10:24:53.725Z,7.62
2023-03-08T10:25:53.736Z,7.72
2023-03-08T10:26:53.786Z,7.74
2023-03-08T10:27:53.827Z,7.77
2023-03-08T10:28:53.885Z,7.78
2023-03-08T10:29:53.959Z,7.79
2023-03-08T10:30:54.060Z,7.84
2023-03-08T10:31:54.017Z,7.92
2023-03-08T10:32:56.421Z,7.93
2023-03-08T10:33:54.103Z,7.99
2023-03-08T10:34:54.150Z,8.04
2023-03-08T10:35:54.234Z,8.03
2023-03-08T10:37:00.914Z,8.11
2023-03-08T10:37:54.309Z,8.07
2023-03-08T10:38:54.336Z,8.07
2023-03-08T10:39:54.376Z,8.03
2023-03-08T10:40:54.447Z,8.11
2023-03-08T10:41:54.456Z,7.99
2023-03-08T10:42:54.534Z,7.96
2023-03-08T10:43:54.567Z,7.93
2023-03-08T10:44:54.603Z,7.97
2023-03-08T10:45:54.659Z,7.97
2023-03-08T10:46:54.683Z,8.10
2023-03-08T10:47:54.766Z,8.04
2023-03-08T10:48:54.781Z,7.93
2023-03-08T10:49:54.831Z,7.96
2023-03-08T10:50:54.898Z,7.93
2023-03-08T10:51:54.956Z,7.93
2023-03-08T10:52:55.908Z,7.93
2023-03-08T10:53:55.009Z,8.03
2023-03-08T10:54:55.050Z,8.11
2023-03-08T10:55:57.956Z,8.17
2023-03-08T10:56:57.890Z,8.22
2023-03-08T10:57:55.192Z,8.30
2023-03-08T10:58:55.231Z,8.11
2023-03-08T10:59:55.300Z,8.11
2023-03-08T11:00:55.370Z,8.25
2023-03-08T11:01:55.401Z,8.25
2023-03-08T11:02:55.406Z,8.25
2023-03-08T11:03:55.466Z,8.21
2023-03-08T11:04:55.642Z,8.26
2023-03-08T11:05:55.562Z,8.26
2023-03-08T11:06:55.587Z,8.25
2023-03-08T11:07:55.639Z,8.26
2023-03-08T11:08:55.678Z,8.22
2023-03-08T11:09:55.770Z,8.21
2023-03-08T11:10:55.782Z,8.35
2023-03-08T11:11:55.820Z,8.45
2023-03-08T11:12:55.861Z,8.33
2023-03-08T11:13:55.926Z,8.35
2023-03-08T11:14:56.026Z,8.25
2023-03-08T11:15:56.025Z,8.20
2023-03-08T11:16:56.057Z,8.20
2023-03-08T11:17:56.096Z,8.28
2023-03-08T11:18:56.185Z,8.21
2023-03-08T11:19:56.179Z,8.28
2023-03-08T11:20:56.226Z,8.22
2023-03-08T11:21:56.271Z,8.22
2023-03-08T11:22:56.325Z,8.20
2023-03-08T11:23:56.430Z,8.29
2023-03-08T11:24:56.422Z,8.22
2023-03-08T11:25:56.446Z,8.28
2023-03-08T11:26:56.539Z,8.36
2023-03-08T11:27:56.559Z,8.40
2023-03-08T11:28:56.683Z,8.39
2023-03-08T11:29:56.660Z,8.53
2023-03-08T11:30:56.712Z,8.53
2023-03-08T11:31:56.721Z,8.69
2023-03-08T11:32:56.903Z,8.68
2023-03-08T11:33:56.886Z,8.71
2023-03-08T11:34:56.908Z,8.71
2023-03-08T11:35:56.995Z,8.69
2023-03-08T11:36:56.952Z,8.75
2023-03-08T11:37:56.990Z,8.84
2023-03-08T11:38:57.052Z,8.83
2023-03-08T11:39:57.112Z,8.86
2023-03-08T11:40:57.149Z,8.90
2023-03-08T11:41:57.186Z,8.94
2023-03-08T11:42:57.236Z,9.04
2023-03-08T11:43:57.267Z,9.04
2023-03-08T11:44:57.362Z,9.10
2023-03-08T11:45:57.908Z,9.06
2023-03-08T11:46:57.454Z,9.09
2023-03-08T11:47:57.465Z,9.16
2023-03-08T11:48:57.603Z,9.16
2023-03-08T11:49:57.556Z,9.18
2023-03-08T11:50:57.586Z,9.18
2023-03-08T11:51:57.687Z,9.09
2023-03-08T11:52:57.681Z,9.23
2023-03-08T11:53:57.734Z,9.13
2023-03-08T11:54:57.831Z,9.16
2023-03-08T11:55:57.820Z,9.02
2023-03-08T11:56:57.862Z,9.16
2023-03-08T11:57:57.947Z,9.02
2023-03-08T11:58:57.952Z,9.09
2023-03-08T11:59:58.010Z,9.04
2023-03-08T12:00:58.052Z,9.06
2023-03-08T12:01:58.102Z,9.01
2023-03-08T12:02:58.181Z,9.01
2023-03-08T12:03:58.362Z,9.01
2023-03-08T12:04:58.365Z,8.91
2023-03-08T12:05:58.374Z,9.09
2023-03-08T12:06:58.419Z,9.01
2023-03-08T12:07:58.430Z,9.20
2023-03-08T12:08:58.469Z,9.15
2023-03-08T12:09:58.488Z,9.21
2023-03-08T12:10:58.501Z,9.21
2023-03-08T12:11:58.553Z,9.23
2023-03-08T12:12:58.587Z,9.24
2023-03-08T12:13:58.664Z,9.34
2023-03-08T12:14:58.764Z,9.40
2023-03-08T12:15:58.804Z,9.52
2023-03-08T12:16:58.854Z,9.63
2023-03-08T12:17:58.822Z,9.67
2023-03-08T12:18:58.902Z,9.75
2023-03-08T12:19:58.908Z,9.89
2023-03-08T12:20:58.970Z,9.91
2023-03-08T12:21:59.035Z,9.93
2023-03-08T12:22:59.091Z,9.91
2023-03-08T12:24:00.874Z,9.85
2023-03-08T12:24:59.145Z,9.75
2023-03-08T12:25:59.188Z,9.78
2023-03-08T12:26:59.267Z,9.85
2023-03-08T12:27:59.384Z,9.81
2023-03-08T12:28:59.332Z,9.82
2023-03-08T12:29:59.373Z,9.82
2023-03-08T12:30:59.439Z,9.89
2023-03-08T12:31:59.565Z,9.94
2023-03-08T12:32:59.748Z,9.96
2023-03-08T12:33:59.582Z,9.96
2023-03-08T12:34:59.615Z,9.89
2023-03-08T12:35:59.761Z,10.03
2023-03-08T12:36:59.706Z,9.91
2023-03-08T12:37:59.824Z,9.91
2023-03-08T12:38:59.807Z,9.91
2023-03-08T12:39:59.844Z,9.82
2023-03-08T12:41:00.413Z,9.89
2023-03-08T12:41:59.931Z,9.82
2023-03-08T12:43:00.013Z,9.88
2023-03-08T12:44:00.083Z,9.82
2023-03-08T12:45:00.097Z,9.88
2023-03-08T12:46:00.244Z,9.83
2023-03-08T12:47:03.772Z,9.79
2023-03-08T12:48:00.257Z,9.93
2023-03-08T12:49:00.293Z,10.00
2023-03-08T12:50:00.409Z,9.94
2023-03-08T12:51:00.575Z,9.96
2023-03-08T12:52:00.409Z,10.03
2023-03-08T12:53:00.451Z,10.01
2023-03-08T12:54:00.526Z,10.01
2023-03-08T12:55:00.584Z,10.15
2023-03-08T12:56:00.588Z,10.17
2023-03-08T12:57:00.637Z,10.15
2023-03-08T12:58:00.704Z,10.26
2023-03-08T12:59:00.753Z,10.43
2023-03-08T13:00:00.821Z,10.55
2023-03-08T13:01:00.856Z,10.47
2023-03-08T13:02:00.874Z,10.70
2023-03-08T13:03:00.910Z,10.63
2023-03-08T13:04:01.015Z,10.77
2023-03-08T13:05:01.048Z,10.80
2023-03-08T13:06:01.095Z,10.91
2023-03-08T13:07:01.102Z,11.03
2023-03-08T13:08:01.168Z,11.09
2023-03-08T13:09:01.206Z,11.25
2023-03-08T13:10:01.273Z,11.31
2023-03-08T13:11:01.321Z,11.36
2023-03-08T13:12:01.340Z,11.44
2023-03-08T13:13:01.423Z,11.41
2023-03-08T13:14:01.439Z,11.44
2023-03-08T13:15:01.478Z,11.52
2023-03-08T13:16:01.557Z,11.56
2023-03-08T13:17:01.612Z,11.50
2023-03-08T13:18:01.622Z,11.61
2023-03-08T13:19:01.780Z,11.65
2023-03-08T13:20:01.740Z,11.71
2023-03-08T13:21:01.805Z,11.74
2023-03-08T13:22:01.812Z,11.78
2023-03-08T13:23:01.891Z,11.86
2023-03-08T13:24:01.913Z,11.82
2023-03-08T13:25:02.005Z,11.85
2023-03-08T13:26:02.061Z,11.75
2023-03-08T13:27:02.078Z,11.75
2023-03-08T13:28:02.195Z,11.74
2023-03-08T13:29:08.971Z,11.75
2023-03-08T13:30:09.014Z,11.77